sensor_id;sensor_type;location;lat;lon;timestamp;pressure;altitude;pressure_sealevel;temperature;humidity
68107;BME280;54892;47.488;19.026;2023-08-24T00:02:03;100085.22;;;25.27;71.33
68107;BME280;54892;47.488;19.026;2023-08-24T00:05:06;100074.81;;;25.09;72.13
68107;BME280;54892;47.488;19.026;2023-08-24T00:08:11;100074.66;;;25.02;72.46
68107;BME280;54892;47.488;19.026;2023-08-24T00:11:14;100079.25;;;25.02;72.67
68107;BME280;54892;47.488;19.026;2023-08-24T00:14:17;100082.47;;;25.07;72.17
68107;BME280;54892;47.488;19.026;2023-08-24T00:17:20;100075.22;;;25.12;71.82
68107;BME280;54892;47.488;19.026;2023-08-24T00:20:24;100077.66;;;25.17;71.75
68107;BME280;54892;47.488;19.026;2023-08-24T00:23:30;100070.03;;;25.03;72.26
68107;BME280;54892;47.488;19.026;2023-08-24T00:26:33;100066.88;;;25.01;72.01
68107;BME280;54892;47.488;19.026;2023-08-24T00:29:36;100074.16;;;24.97;72.34
68107;BME280;54892;47.488;19.026;2023-08-24T00:32:39;100081.53;;;25.00;72.08
68107;BME280;54892;47.488;19.026;2023-08-24T00:35:42;100082.59;;;24.95;72.20
68107;BME280;54892;47.488;19.026;2023-08-24T00:38:47;100078.69;;;24.92;72.61
68107;BME280;54892;47.488;19.026;2023-08-24T00:41:53;100077.66;;;24.81;72.76
68107;BME280;54892;47.488;19.026;2023-08-24T00:44:56;100082.69;;;24.83;72.77
68107;BME280;54892;47.488;19.026;2023-08-24T00:47:59;100076.59;;;24.70;73.42
68107;BME280;54892;47.488;19.026;2023-08-24T00:51:02;100078.69;;;24.76;73.29
68107;BME280;54892;47.488;19.026;2023-08-24T00:54:08;100082.31;;;24.68;73.47
68107;BME280;54892;47.488;19.026;2023-08-24T00:57:10;100082.69;;;24.67;73.52
68107;BME280;54892;47.488;19.026;2023-08-24T01:00:14;100089.97;;;24.66;73.57
68107;BME280;54892;47.488;19.026;2023-08-24T01:03:17;100084.84;;;24.61;73.82
68107;BME280;54892;47.488;19.026;2023-08-24T01:06:20;100083.09;;;24.53;74.25
68107;BME280;54892;47.488;19.026;2023-08-24T01:09:25;100090.44;;;24.52;74.06
68107;BME280;54892;47.488;19.026;2023-08-24T01:12:31;100085.56;;;24.58;73.77
68107;BME280;54892;47.488;19.026;2023-08-24T01:15:37;100086.25;;;24.55;73.85
68107;BME280;54892;47.488;19.026;2023-08-24T01:18:40;100077.09;;;24.59;73.52
68107;BME280;54892;47.488;19.026;2023-08-24T01:21:45;100087.38;;;24.54;73.69
68107;BME280;54892;47.488;19.026;2023-08-24T01:24:52;100079.19;;;24.50;73.88
68107;BME280;54892;47.488;19.026;2023-08-24T01:27:57;100079.44;;;24.45;74.20
68107;BME280;54892;47.488;19.026;2023-08-24T01:31:01;100081.63;;;24.39;74.40
68107;BME280;54892;47.488;19.026;2023-08-24T01:34:06;100080.41;;;24.37;74.50
68107;BME280;54892;47.488;19.026;2023-08-24T01:37:09;100083.78;;;24.33;74.54
68107;BME280;54892;47.488;19.026;2023-08-24T01:40:13;100073.34;;;24.32;74.42
68107;BME280;54892;47.488;19.026;2023-08-24T01:43:20;100075.19;;;24.28;75.14
68107;BME280;54892;47.488;19.026;2023-08-24T01:46:29;100084.84;;;24.29;75.11
68107;BME280;54892;47.488;19.026;2023-08-24T01:49:32;100082.47;;;24.27;74.99
68107;BME280;54892;47.488;19.026;2023-08-24T01:52:37;100081.59;;;24.23;75.01
68107;BME280;54892;47.488;19.026;2023-08-24T01:55:40;100083.06;;;24.21;74.53
68107;BME280;54892;47.488;19.026;2023-08-24T01:58:46;100077.69;;;24.21;74.68
68107;BME280;54892;47.488;19.026;2023-08-24T02:01:49;100085.16;;;24.11;75.00
68107;BME280;54892;47.488;19.026;2023-08-24T02:04:52;100085.16;;;24.11;75.14
68107;BME280;54892;47.488;19.026;2023-08-24T02:07:55;100078.06;;;24.07;75.22
68107;BME280;54892;47.488;19.026;2023-08-24T02:10:59;100075.41;;;23.94;75.73
68107;BME280;54892;47.488;19.026;2023-08-24T02:14:03;100080.16;;;23.97;75.62
68107;BME280;54892;47.488;19.026;2023-08-24T02:17:06;100068.69;;;24.00;75.58
68107;BME280;54892;47.488;19.026;2023-08-24T02:20:10;100077.09;;;23.99;75.78
68107;BME280;54892;47.488;19.026;2023-08-24T02:23:13;100074.25;;;24.08;75.56
68107;BME280;54892;47.488;19.026;2023-08-24T02:26:16;100070.78;;;24.07;75.31
68107;BME280;54892;47.488;19.026;2023-08-24T02:29:20;100068.53;;;24.09;75.51
68107;BME280;54892;47.488;19.026;2023-08-24T02:32:24;100069.56;;;24.05;75.29
68107;BME280;54892;47.488;19.026;2023-08-24T02:35:27;100059.81;;;24.00;75.52
68107;BME280;54892;47.488;19.026;2023-08-24T02:38:29;100066.06;;;24.04;75.16
68107;BME280;54892;47.488;19.026;2023-08-24T02:41:33;100066.53;;;24.06;75.38
68107;BME280;54892;47.488;19.026;2023-08-24T02:44:38;100067.41;;;24.10;75.09
68107;BME280;54892;47.488;19.026;2023-08-24T02:47:41;100063.66;;;24.15;75.00
68107;BME280;54892;47.488;19.026;2023-08-24T02:50:45;100069.06;;;24.15;74.93
68107;BME280;54892;47.488;19.026;2023-08-24T02:53:48;100063.22;;;24.13;75.23
68107;BME280;54892;47.488;19.026;2023-08-24T02:56:52;100067.84;;;24.12;75.16
68107;BME280;54892;47.488;19.026;2023-08-24T02:59:57;100063.13;;;24.09;75.52
68107;BME280;54892;47.488;19.026;2023-08-24T03:03:00;100065.41;;;24.07;75.75
68107;BME280;54892;47.488;19.026;2023-08-24T03:06:04;100063.87;;;23.94;76.76
68107;BME280;54892;47.488;19.026;2023-08-24T03:09:07;100058.53;;;23.81;76.82
68107;BME280;54892;47.488;19.026;2023-08-24T03:12:10;100057.69;;;23.65;77.44
68107;BME280;54892;47.488;19.026;2023-08-24T03:15:15;100061.37;;;23.60;77.82
68107;BME280;54892;47.488;19.026;2023-08-24T03:18:18;100063.09;;;23.52;78.24
68107;BME280;54892;47.488;19.026;2023-08-24T03:21:22;100059.31;;;23.41;79.09
68107;BME280;54892;47.488;19.026;2023-08-24T03:24:25;100070.91;;;23.41;78.89
68107;BME280;54892;47.488;19.026;2023-08-24T03:27:28;100067.34;;;23.25;79.73
68107;BME280;54892;47.488;19.026;2023-08-24T03:30:32;100066.75;;;23.19;80.04
68107;BME280;54892;47.488;19.026;2023-08-24T03:33:36;100065.97;;;23.19;80.20
68107;BME280;54892;47.488;19.026;2023-08-24T03:36:39;100067.75;;;23.15;80.33
68107;BME280;54892;47.488;19.026;2023-08-24T03:39:42;100071.56;;;23.14;80.51
68107;BME280;54892;47.488;19.026;2023-08-24T03:42:45;100070.13;;;23.04;81.22
68107;BME280;54892;47.488;19.026;2023-08-24T03:45:50;100073.03;;;22.99;81.50
68107;BME280;54892;47.488;19.026;2023-08-24T03:48:53;100069.25;;;23.00;81.54
68107;BME280;54892;47.488;19.026;2023-08-24T03:51:56;100078.19;;;22.91;82.07
68107;BME280;54892;47.488;19.026;2023-08-24T03:54:59;100077.53;;;22.82;82.64
68107;BME280;54892;47.488;19.026;2023-08-24T03:58:02;100078.91;;;22.88;82.57
68107;BME280;54892;47.488;19.026;2023-08-24T04:01:10;100080.69;;;22.84;82.71
68107;BME280;54892;47.488;19.026;2023-08-24T04:04:14;100077.28;;;22.75;83.32
68107;BME280;54892;47.488;19.026;2023-08-24T04:07:17;100084.50;;;22.83;82.87
68107;BME280;54892;47.488;19.026;2023-08-24T04:10:20;100084.03;;;22.93;82.38
68107;BME280;54892;47.488;19.026;2023-08-24T04:13:23;100073.72;;;22.95;82.20
68107;BME280;54892;47.488;19.026;2023-08-24T04:16:28;100088.09;;;22.87;82.61
68107;BME280;54892;47.488;19.026;2023-08-24T04:19:32;100081.59;;;22.88;82.70
68107;BME280;54892;47.488;19.026;2023-08-24T04:22:35;100077.87;;;22.93;82.38
68107;BME280;54892;47.488;19.026;2023-08-24T04:25:39;100082.47;;;22.92;82.44
68107;BME280;54892;47.488;19.026;2023-08-24T04:28:42;100086.16;;;22.88;82.63
68107;BME280;54892;47.488;19.026;2023-08-24T04:31:46;100086.28;;;22.91;82.49
68107;BME280;54892;47.488;19.026;2023-08-24T04:34:49;100092.66;;;22.99;81.71
68107;BME280;54892;47.488;19.026;2023-08-24T04:37:53;100103.56;;;23.03;81.38
68107;BME280;54892;47.488;19.026;2023-08-24T04:40:56;100097.94;;;23.08;81.58
68107;BME280;54892;47.488;19.026;2023-08-24T04:43:59;100093.22;;;23.17;80.39
68107;BME280;54892;47.488;19.026;2023-08-24T04:47:04;100090.09;;;23.27;80.25
68107;BME280;54892;47.488;19.026;2023-08-24T04:50:08;100095.72;;;23.35;79.62
68107;BME280;54892;47.488;19.026;2023-08-24T04:53:12;100096.91;;;23.50;78.53
68107;BME280;54892;47.488;19.026;2023-08-24T04:56:15;100103.94;;;23.54;78.12
68107;BME280;54892;47.488;19.026;2023-08-24T04:59:21;100112.16;;;23.58;78.21
68107;BME280;54892;47.488;19.026;2023-08-24T05:02:26;100104.38;;;23.69;77.91
68107;BME280;54892;47.488;19.026;2023-08-24T05:05:28;100112.66;;;23.76;77.79
68107;BME280;54892;47.488;19.026;2023-08-24T05:08:32;100115.00;;;23.78;77.88
68107;BME280;54892;47.488;19.026;2023-08-24T05:11:34;100118.94;;;23.80;77.76
68107;BME280;54892;47.488;19.026;2023-08-24T05:14:38;100117.56;;;23.86;77.66
68107;BME280;54892;47.488;19.026;2023-08-24T05:17:42;100121.41;;;23.98;77.18
68107;BME280;54892;47.488;19.026;2023-08-24T05:20:45;100116.47;;;24.16;76.55
68107;BME280;54892;47.488;19.026;2023-08-24T05:23:48;100118.19;;;24.08;76.86
68107;BME280;54892;47.488;19.026;2023-08-24T05:26:51;100123.22;;;24.10;77.00
68107;BME280;54892;47.488;19.026;2023-08-24T05:29:54;100116.22;;;24.21;76.78
68107;BME280;54892;47.488;19.026;2023-08-24T05:32:59;100125.09;;;24.22;77.12
68107;BME280;54892;47.488;19.026;2023-08-24T05:36:02;100119.03;;;24.25;77.04
68107;BME280;54892;47.488;19.026;2023-08-24T05:39:06;100111.97;;;24.20;77.37
68107;BME280;54892;47.488;19.026;2023-08-24T05:42:09;100123.53;;;24.21;77.32
68107;BME280;54892;47.488;19.026;2023-08-24T05:45:11;100128.16;;;24.36;76.47
68107;BME280;54892;47.488;19.026;2023-08-24T05:48:16;100125.03;;;24.34;76.75
68107;BME280;54892;47.488;19.026;2023-08-24T05:51:19;100130.34;;;24.30;77.17
68107;BME280;54892;47.488;19.026;2023-08-24T05:54:22;100133.56;;;24.36;77.58
68107;BME280;54892;47.488;19.026;2023-08-24T05:57:26;100135.13;;;24.53;76.76
68107;BME280;54892;47.488;19.026;2023-08-24T06:00:29;100137.25;;;24.60;76.30
68107;BME280;54892;47.488;19.026;2023-08-24T06:03:34;100135.47;;;24.80;75.73
68107;BME280;54892;47.488;19.026;2023-08-24T06:06:36;100132.31;;;24.94;75.46
68107;BME280;54892;47.488;19.026;2023-08-24T06:09:39;100133.53;;;24.97;75.51
68107;BME280;54892;47.488;19.026;2023-08-24T06:12:42;100127.97;;;25.05;74.10
68107;BME280;54892;47.488;19.026;2023-08-24T06:15:45;100123.84;;;25.12;73.74
68107;BME280;54892;47.488;19.026;2023-08-24T06:18:50;100124.28;;;25.30;73.74
68107;BME280;54892;47.488;19.026;2023-08-24T06:21:53;100127.88;;;25.53;72.50
68107;BME280;54892;47.488;19.026;2023-08-24T06:24:56;100130.50;;;25.69;71.63
68107;BME280;54892;47.488;19.026;2023-08-24T06:28:01;100127.59;;;25.78;71.45
68107;BME280;54892;47.488;19.026;2023-08-24T06:31:05;100135.22;;;25.73;70.76
68107;BME280;54892;47.488;19.026;2023-08-24T06:34:10;100135.59;;;25.71;70.10
68107;BME280;54892;47.488;19.026;2023-08-24T06:37:14;100134.38;;;25.68;70.78
68107;BME280;54892;47.488;19.026;2023-08-24T06:40:17;100133.94;;;25.66;71.39
68107;BME280;54892;47.488;19.026;2023-08-24T06:43:20;100129.16;;;25.79;70.28
68107;BME280;54892;47.488;19.026;2023-08-24T06:46:23;100133.81;;;25.79;70.41
68107;BME280;54892;47.488;19.026;2023-08-24T06:49:28;100130.75;;;25.80;70.28
68107;BME280;54892;47.488;19.026;2023-08-24T06:52:30;100135.66;;;25.94;70.24
68107;BME280;54892;47.488;19.026;2023-08-24T06:55:33;100128.69;;;26.13;68.14
68107;BME280;54892;47.488;19.026;2023-08-24T06:58:38;100131.41;;;26.13;69.01
68107;BME280;54892;47.488;19.026;2023-08-24T07:01:42;100136.22;;;26.23;67.96
68107;BME280;54892;47.488;19.026;2023-08-24T07:04:46;100129.56;;;26.64;66.97
68107;BME280;54892;47.488;19.026;2023-08-24T07:07:49;100131.69;;;27.24;65.26
68107;BME280;54892;47.488;19.026;2023-08-24T07:10:53;100129.91;;;28.34;62.48
68107;BME280;54892;47.488;19.026;2023-08-24T07:13:56;100132.59;;;29.24;57.28
68107;BME280;54892;47.488;19.026;2023-08-24T07:16:59;100132.59;;;30.52;53.13
68107;BME280;54892;47.488;19.026;2023-08-24T07:20:04;100143.38;;;32.39;48.36
68107;BME280;54892;47.488;19.026;2023-08-24T07:23:08;100131.53;;;33.71;44.43
68107;BME280;54892;47.488;19.026;2023-08-24T07:26:10;100138.69;;;34.71;41.15
68107;BME280;54892;47.488;19.026;2023-08-24T07:29:14;100144.38;;;35.04;40.04
68107;BME280;54892;47.488;19.026;2023-08-24T07:32:17;100138.66;;;35.96;38.58
68107;BME280;54892;47.488;19.026;2023-08-24T07:35:22;100145.75;;;36.76;37.42
68107;BME280;54892;47.488;19.026;2023-08-24T07:38:26;100143.34;;;37.24;36.08
68107;BME280;54892;47.488;19.026;2023-08-24T07:41:29;100152.47;;;37.51;35.87
68107;BME280;54892;47.488;19.026;2023-08-24T07:44:32;100148.53;;;37.90;35.18
68107;BME280;54892;47.488;19.026;2023-08-24T07:47:35;100148.72;;;38.22;34.58
68107;BME280;54892;47.488;19.026;2023-08-24T07:50:40;100148.28;;;38.23;34.51
68107;BME280;54892;47.488;19.026;2023-08-24T07:53:43;100144.97;;;38.29;33.84
68107;BME280;54892;47.488;19.026;2023-08-24T07:56:46;100149.19;;;38.07;34.33
68107;BME280;54892;47.488;19.026;2023-08-24T07:59:49;100140.66;;;38.41;34.08
68107;BME280;54892;47.488;19.026;2023-08-24T08:02:52;100148.59;;;37.61;34.80
68107;BME280;54892;47.488;19.026;2023-08-24T08:05:56;100154.66;;;37.43;35.15
68107;BME280;54892;47.488;19.026;2023-08-24T08:08:59;100158.47;;;36.86;36.26
68107;BME280;54892;47.488;19.026;2023-08-24T08:12:03;100151.97;;;36.14;37.33
68107;BME280;54892;47.488;19.026;2023-08-24T08:15:06;100147.00;;;35.52;38.08
68107;BME280;54892;47.488;19.026;2023-08-24T08:18:09;100149.25;;;34.22;41.85
68107;BME280;54892;47.488;19.026;2023-08-24T08:21:16;100149.56;;;33.69;42.56
68107;BME280;54892;47.488;19.026;2023-08-24T08:24:22;100157.16;;;32.74;43.93
68107;BME280;54892;47.488;19.026;2023-08-24T08:27:25;100160.31;;;32.12;45.10
68107;BME280;54892;47.488;19.026;2023-08-24T08:30:28;100152.25;;;31.87;46.26
68107;BME280;54892;47.488;19.026;2023-08-24T08:33:32;100148.41;;;31.66;47.93
68107;BME280;54892;47.488;19.026;2023-08-24T08:36:36;100152.75;;;31.56;46.25
68107;BME280;54892;47.488;19.026;2023-08-24T08:39:39;100153.63;;;31.06;47.13
68107;BME280;54892;47.488;19.026;2023-08-24T08:42:42;100154.47;;;30.67;48.46
68107;BME280;54892;47.488;19.026;2023-08-24T08:45:45;100155.59;;;30.84;50.36
68107;BME280;54892;47.488;19.026;2023-08-24T08:48:49;100149.00;;;30.81;50.06
68107;BME280;54892;47.488;19.026;2023-08-24T08:51:54;100150.16;;;30.84;49.12
68107;BME280;54892;47.488;19.026;2023-08-24T08:54:58;100145.50;;;30.74;49.67
68107;BME280;54892;47.488;19.026;2023-08-24T08:58:02;100144.31;;;30.86;50.09
68107;BME280;54892;47.488;19.026;2023-08-24T09:01:05;100133.81;;;30.73;49.66
68107;BME280;54892;47.488;19.026;2023-08-24T09:04:11;100139.25;;;30.77;49.70
68107;BME280;54892;47.488;19.026;2023-08-24T09:07:16;100137.34;;;30.63;49.12
68107;BME280;54892;47.488;19.026;2023-08-24T09:10:19;100129.09;;;30.30;50.42
68107;BME280;54892;47.488;19.026;2023-08-24T09:13:22;100126.03;;;30.43;49.87
68107;BME280;54892;47.488;19.026;2023-08-24T09:16:28;100131.47;;;30.43;48.94
68107;BME280;54892;47.488;19.026;2023-08-24T09:19:32;100133.38;;;30.24;48.92
68107;BME280;54892;47.488;19.026;2023-08-24T09:22:38;100122.84;;;30.22;48.20
68107;BME280;54892;47.488;19.026;2023-08-24T09:25:44;100126.38;;;30.30;48.24
68107;BME280;54892;47.488;19.026;2023-08-24T09:28:48;100122.13;;;30.33;48.00
68107;BME280;54892;47.488;19.026;2023-08-24T09:31:51;100118.59;;;30.29;46.26
68107;BME280;54892;47.488;19.026;2023-08-24T09:34:55;100118.22;;;30.34;47.94
68107;BME280;54892;47.488;19.026;2023-08-24T09:38:01;100115.91;;;30.36;44.25
68107;BME280;54892;47.488;19.026;2023-08-24T09:41:04;100110.84;;;30.42;44.98
68107;BME280;54892;47.488;19.026;2023-08-24T09:44:07;100114.72;;;30.41;43.99
68107;BME280;54892;47.488;19.026;2023-08-24T09:47:10;100100.34;;;30.47;42.78
68107;BME280;54892;47.488;19.026;2023-08-24T09:50:13;100099.16;;;30.48;43.53
68107;BME280;54892;47.488;19.026;2023-08-24T09:53:18;100105.78;;;30.55;41.51
68107;BME280;54892;47.488;19.026;2023-08-24T09:56:22;100102.28;;;30.54;42.66
68107;BME280;54892;47.488;19.026;2023-08-24T09:59:26;100108.88;;;30.53;43.06
68107;BME280;54892;47.488;19.026;2023-08-24T10:02:29;100110.84;;;30.63;42.45
68107;BME280;54892;47.488;19.026;2023-08-24T10:05:34;100095.66;;;30.77;39.57
68107;BME280;54892;47.488;19.026;2023-08-24T10:08:44;100106.97;;;30.82;38.09
68107;BME280;54892;47.488;19.026;2023-08-24T10:11:51;100106.94;;;30.68;37.66
68107;BME280;54892;47.488;19.026;2023-08-24T10:14:56;100102.69;;;30.67;38.74
68107;BME280;54892;47.488;19.026;2023-08-24T10:18:02;100106.94;;;30.90;37.79
68107;BME280;54892;47.488;19.026;2023-08-24T10:21:05;100096.44;;;30.92;37.66
68107;BME280;54892;47.488;19.026;2023-08-24T10:24:09;100091.75;;;30.92;37.83
68107;BME280;54892;47.488;19.026;2023-08-24T10:27:14;100083.56;;;30.96;38.31
68107;BME280;54892;47.488;19.026;2023-08-24T10:30:17;100087.47;;;30.88;40.07
68107;BME280;54892;47.488;19.026;2023-08-24T10:33:22;100085.91;;;30.94;39.96
68107;BME280;54892;47.488;19.026;2023-08-24T10:36:25;100078.88;;;30.96;41.47
68107;BME280;54892;47.488;19.026;2023-08-24T10:39:31;100076.97;;;30.86;39.89
68107;BME280;54892;47.488;19.026;2023-08-24T10:42:45;100074.22;;;30.93;39.42
68107;BME280;54892;47.488;19.026;2023-08-24T10:45:55;100068.75;;;31.04;36.49
68107;BME280;54892;47.488;19.026;2023-08-24T10:48:59;100074.63;;;30.92;36.92
68107;BME280;54892;47.488;19.026;2023-08-24T10:52:18;100069.56;;;30.87;37.26
68107;BME280;54892;47.488;19.026;2023-08-24T10:55:24;100064.88;;;30.94;37.13
68107;BME280;54892;47.488;19.026;2023-08-24T10:58:28;100074.97;;;31.01;36.83
68107;BME280;54892;47.488;19.026;2023-08-24T11:01:38;100065.66;;;30.95;36.51
68107;BME280;54892;47.488;19.026;2023-08-24T11:04:41;100073.06;;;30.98;36.68
68107;BME280;54892;47.488;19.026;2023-08-24T11:08:05;100068.38;;;31.06;36.36
68107;BME280;54892;47.488;19.026;2023-08-24T11:11:19;100072.62;;;31.07;36.58
68107;BME280;54892;47.488;19.026;2023-08-24T11:14:22;100069.12;;;31.21;35.33
68107;BME280;54892;47.488;19.026;2023-08-24T11:17:29;100060.16;;;31.17;36.03
68107;BME280;54892;47.488;19.026;2023-08-24T11:20:33;100055.88;;;31.16;36.27
68107;BME280;54892;47.488;19.026;2023-08-24T11:23:37;100057.44;;;31.17;36.62
68107;BME280;54892;47.488;19.026;2023-08-24T11:26:41;100054.34;;;31.07;37.15
68107;BME280;54892;47.488;19.026;2023-08-24T11:29:45;100057.44;;;31.17;37.06
68107;BME280;54892;47.488;19.026;2023-08-24T11:32:51;100054.72;;;31.13;37.43
68107;BME280;54892;47.488;19.026;2023-08-24T11:35:55;100055.47;;;31.21;36.81
68107;BME280;54892;47.488;19.026;2023-08-24T11:38:58;100055.09;;;31.19;35.72
68107;BME280;54892;47.488;19.026;2023-08-24T11:42:03;100042.28;;;31.01;37.52
68107;BME280;54892;47.488;19.026;2023-08-24T11:45:10;100050.44;;;31.19;37.13
68107;BME280;54892;47.488;19.026;2023-08-24T11:48:14;100048.50;;;31.12;37.18
68107;BME280;54892;47.488;19.026;2023-08-24T11:51:18;100045.00;;;31.08;36.63
68107;BME280;54892;47.488;19.026;2023-08-24T11:54:27;100044.59;;;31.17;36.55
68107;BME280;54892;47.488;19.026;2023-08-24T11:57:34;100045.38;;;31.10;36.28
68107;BME280;54892;47.488;19.026;2023-08-24T12:00:38;100032.12;;;31.05;36.09
68107;BME280;54892;47.488;19.026;2023-08-24T12:03:42;100047.28;;;31.24;36.11
68107;BME280;54892;47.488;19.026;2023-08-24T12:06:47;100040.25;;;31.31;35.40
68107;BME280;54892;47.488;19.026;2023-08-24T12:09:50;100032.47;;;31.25;35.67
68107;BME280;54892;47.488;19.026;2023-08-24T12:13:02;100038.72;;;31.26;35.52
68107;BME280;54892;47.488;19.026;2023-08-24T12:16:05;100023.50;;;31.36;34.08
68107;BME280;54892;47.488;19.026;2023-08-24T12:19:08;100019.59;;;31.29;34.62
68107;BME280;54892;47.488;19.026;2023-08-24T12:22:14;100022.75;;;31.28;34.60
68107;BME280;54892;47.488;19.026;2023-08-24T12:25:21;100015.31;;;31.36;33.95
68107;BME280;54892;47.488;19.026;2023-08-24T12:28:26;100013.78;;;31.24;34.57
68107;BME280;54892;47.488;19.026;2023-08-24T12:31:32;100007.97;;;31.22;35.30
68107;BME280;54892;47.488;19.026;2023-08-24T12:34:35;100006.78;;;31.23;34.55
68107;BME280;54892;47.488;19.026;2023-08-24T12:37:38;100002.53;;;31.18;36.17
68107;BME280;54892;47.488;19.026;2023-08-24T12:40:41;100008.31;;;31.27;34.93
68107;BME280;54892;47.488;19.026;2023-08-24T12:43:46;100004.00;;;31.30;34.48
68107;BME280;54892;47.488;19.026;2023-08-24T12:46:49;99992.75;;;31.28;34.75
68107;BME280;54892;47.488;19.026;2023-08-24T12:49:52;99989.94;;;31.39;34.98
68107;BME280;54892;47.488;19.026;2023-08-24T12:52:57;99992.66;;;31.42;33.69
68107;BME280;54892;47.488;19.026;2023-08-24T12:56:02;99985.25;;;31.43;34.25
68107;BME280;54892;47.488;19.026;2023-08-24T12:59:07;99983.31;;;31.43;34.17
68107;BME280;54892;47.488;19.026;2023-08-24T13:02:10;99981.75;;;31.42;34.94
68107;BME280;54892;47.488;19.026;2023-08-24T13:05:22;99986.37;;;31.53;33.91
68107;BME280;54892;47.488;19.026;2023-08-24T13:08:25;99971.97;;;31.49;34.33
68107;BME280;54892;47.488;19.026;2023-08-24T13:11:28;99973.59;;;31.39;34.34
68107;BME280;54892;47.488;19.026;2023-08-24T13:14:32;99964.63;;;31.38;34.78
68107;BME280;54892;47.488;19.026;2023-08-24T13:17:36;99960.31;;;31.41;34.90
68107;BME280;54892;47.488;19.026;2023-08-24T13:20:40;99961.84;;;31.46;34.60
68107;BME280;54892;47.488;19.026;2023-08-24T13:26:47;99959.06;;;31.60;34.45
68107;BME280;54892;47.488;19.026;2023-08-24T13:29:51;99949.72;;;31.54;34.38
68107;BME280;54892;47.488;19.026;2023-08-24T13:32:58;99943.91;;;31.52;34.97
68107;BME280;54892;47.488;19.026;2023-08-24T13:36:02;99950.16;;;31.49;34.00
68107;BME280;54892;47.488;19.026;2023-08-24T13:39:05;99951.69;;;31.50;34.60
68107;BME280;54892;47.488;19.026;2023-08-24T13:42:08;99943.09;;;31.55;34.41
68107;BME280;54892;47.488;19.026;2023-08-24T13:45:12;99941.56;;;31.50;33.75
68107;BME280;54892;47.488;19.026;2023-08-24T13:48:15;99934.59;;;31.42;33.94
68107;BME280;54892;47.488;19.026;2023-08-24T13:51:17;99945.81;;;31.55;33.59
68107;BME280;54892;47.488;19.026;2023-08-24T13:54:20;99934.94;;;31.48;34.23
68107;BME280;54892;47.488;19.026;2023-08-24T13:57:23;99930.72;;;31.43;35.54
68107;BME280;54892;47.488;19.026;2023-08-24T14:00:27;99931.94;;;31.35;34.82
68107;BME280;54892;47.488;19.026;2023-08-24T14:03:31;99930.00;;;31.32;35.03
68107;BME280;54892;47.488;19.026;2023-08-24T14:06:34;99933.50;;;31.36;35.12
68107;BME280;54892;47.488;19.026;2023-08-24T14:09:38;99928.38;;;31.38;34.50
68107;BME280;54892;47.488;19.026;2023-08-24T14:12:43;99925.59;;;31.49;33.51
68107;BME280;54892;47.488;19.026;2023-08-24T14:15:48;99924.37;;;31.53;33.98
68107;BME280;54892;47.488;19.026;2023-08-24T14:18:52;99924.81;;;31.52;34.14
68107;BME280;54892;47.488;19.026;2023-08-24T14:21:55;99920.47;;;31.58;34.26
68107;BME280;54892;47.488;19.026;2023-08-24T14:24:59;99912.72;;;31.53;34.58
68107;BME280;54892;47.488;19.026;2023-08-24T14:28:02;99912.72;;;31.53;34.20
68107;BME280;54892;47.488;19.026;2023-08-24T14:31:07;99912.06;;;31.34;35.30
68107;BME280;54892;47.488;19.026;2023-08-24T14:34:10;99907.78;;;31.33;35.24
68107;BME280;54892;47.488;19.026;2023-08-24T14:37:13;99907.34;;;31.42;32.39
68107;BME280;54892;47.488;19.026;2023-08-24T14:40:17;99903.47;;;31.39;33.31
68107;BME280;54892;47.488;19.026;2023-08-24T14:43:21;99909.75;;;31.33;34.01
68107;BME280;54892;47.488;19.026;2023-08-24T14:46:26;99903.50;;;31.36;33.97
68107;BME280;54892;47.488;19.026;2023-08-24T14:49:29;99912.78;;;31.42;33.14
68107;BME280;54892;47.488;19.026;2023-08-24T14:52:32;99899.59;;;31.37;33.64
68107;BME280;54892;47.488;19.026;2023-08-24T14:55:37;99902.72;;;31.35;33.69
68107;BME280;54892;47.488;19.026;2023-08-24T14:58:40;99906.66;;;31.27;34.53
68107;BME280;54892;47.488;19.026;2023-08-24T15:01:44;99903.59;;;31.18;34.88
68107;BME280;54892;47.488;19.026;2023-08-24T15:04:47;99904.00;;;31.12;35.50
68107;BME280;54892;47.488;19.026;2023-08-24T15:07:50;99902.06;;;31.09;36.42
68107;BME280;54892;47.488;19.026;2023-08-24T15:10:54;99905.19;;;31.04;36.01
68107;BME280;54892;47.488;19.026;2023-08-24T15:13:57;99904.78;;;31.09;36.49
68107;BME280;54892;47.488;19.026;2023-08-24T15:17:01;99909.44;;;31.16;36.75
68107;BME280;54892;47.488;19.026;2023-08-24T15:20:05;99909.84;;;31.14;36.25
68107;BME280;54892;47.488;19.026;2023-08-24T15:23:09;99907.09;;;31.14;36.24
68107;BME280;54892;47.488;19.026;2023-08-24T15:26:12;99910.22;;;31.17;36.21
68107;BME280;54892;47.488;19.026;2023-08-24T15:29:15;99905.19;;;31.11;35.50
68107;BME280;54892;47.488;19.026;2023-08-24T15:32:20;99894.28;;;31.08;36.08
68107;BME280;54892;47.488;19.026;2023-08-24T15:35:24;99896.25;;;31.04;36.19
68107;BME280;54892;47.488;19.026;2023-08-24T15:38:28;99901.72;;;31.00;35.84
68107;BME280;54892;47.488;19.026;2023-08-24T15:41:33;99892.81;;;30.96;36.14
68107;BME280;54892;47.488;19.026;2023-08-24T15:44:36;99898.25;;;30.92;36.06
68107;BME280;54892;47.488;19.026;2023-08-24T15:47:40;99895.09;;;31.01;35.14
68107;BME280;54892;47.488;19.026;2023-08-24T15:50:43;99889.34;;;30.88;35.72
68107;BME280;54892;47.488;19.026;2023-08-24T15:53:46;99878.44;;;30.84;35.96
68107;BME280;54892;47.488;19.026;2023-08-24T15:56:49;99881.16;;;30.84;35.29